sensor_id;sensor_type;location;lat;lon;timestamp;P1;durP1;ratioP1;P2;durP2;ratioP2
5297;SDS011;14738;42.668;23.250;2023-05-10T00:01:01;9.03;;;8.13;;
5297;SDS011;14738;42.668;23.250;2023-05-10T00:03:27;9.77;;;8.60;;
5297;SDS011;14738;42.668;23.250;2023-05-10T00:05:53;8.40;;;7.60;;
5297;SDS011;14738;42.668;23.250;2023-05-10T00:08:18;9.43;;;8.47;;
5297;SDS011;14738;42.668;23.250;2023-05-10T00:10:43;9.30;;;8.40;;
5297;SDS011;14738;42.668;23.250;2023-05-10T00:13:09;10.00;;;9.10;;
5297;SDS011;14738;42.668;23.250;2023-05-10T00:15:34;10.03;;;8.50;;
5297;SDS011;14738;42.668;23.250;2023-05-10T00:18:00;11.73;;;9.90;;
5297;SDS011;14738;42.668;23.250;2023-05-10T00:20:25;10.90;;;9.80;;
5297;SDS011;14738;42.668;23.250;2023-05-10T00:22:51;11.70;;;9.73;;
5297;SDS011;14738;42.668;23.250;2023-05-10T00:25:16;11.13;;;10.03;;
5297;SDS011;14738;42.668;23.250;2023-05-10T00:27:41;10.10;;;9.10;;
5297;SDS011;14738;42.668;23.250;2023-05-10T00:30:07;10.00;;;9.10;;
5297;SDS011;14738;42.668;23.250;2023-05-10T00:32:33;10.00;;;9.00;;
5297;SDS011;14738;42.668;23.250;2023-05-10T00:34:58;9.50;;;8.60;;
5297;SDS011;14738;42.668;23.250;2023-05-10T00:37:23;10.53;;;9.53;;
5297;SDS011;14738;42.668;23.250;2023-05-10T00:39:49;7.80;;;7.10;;
5297;SDS011;14738;42.668;23.250;2023-05-10T00:42:14;10.17;;;9.17;;
5297;SDS011;14738;42.668;23.250;2023-05-10T00:44:40;10.03;;;9.03;;
5297;SDS011;14738;42.668;23.250;2023-05-10T00:47:05;11.13;;;10.13;;
5297;SDS011;14738;42.668;23.250;2023-05-10T00:49:31;10.30;;;9.40;;
5297;SDS011;14738;42.668;23.250;2023-05-10T00:51:57;8.53;;;7.70;;
5297;SDS011;14738;42.668;23.250;2023-05-10T00:54:23;10.63;;;9.67;;
5297;SDS011;14738;42.668;23.250;2023-05-10T00:56:48;11.00;;;9.90;;
5297;SDS011;14738;42.668;23.250;2023-05-10T00:59:17;11.10;;;9.87;;
5297;SDS011;14738;42.668;23.250;2023-05-10T01:01:44;10.77;;;9.77;;
5297;SDS011;14738;42.668;23.250;2023-05-10T01:04:10;10.83;;;9.83;;
5297;SDS011;14738;42.668;23.250;2023-05-10T01:06:38;11.17;;;9.93;;
5297;SDS011;14738;42.668;23.250;2023-05-10T01:09:04;12.60;;;11.40;;
5297;SDS011;14738;42.668;23.250;2023-05-10T01:11:29;17.33;;;10.30;;
5297;SDS011;14738;42.668;23.250;2023-05-10T01:13:55;10.17;;;9.27;;
5297;SDS011;14738;42.668;23.250;2023-05-10T01:16:22;11.37;;;10.37;;
5297;SDS011;14738;42.668;23.250;2023-05-10T01:18:49;12.10;;;11.00;;
5297;SDS011;14738;42.668;23.250;2023-05-10T01:21:50;8.37;;;7.67;;
5297;SDS011;14738;42.668;23.250;2023-05-10T01:27:14;11.47;;;10.23;;
5297;SDS011;14738;42.668;23.250;2023-05-10T01:35:19;11.13;;;10.17;;
5297;SDS011;14738;42.668;23.250;2023-05-10T01:41:06;10.90;;;9.07;;
5297;SDS011;14738;42.668;23.250;2023-05-10T01:43:40;11.00;;;10.00;;
5297;SDS011;14738;42.668;23.250;2023-05-10T01:46:14;9.60;;;8.73;;
5297;SDS011;14738;42.668;23.250;2023-05-10T01:48:47;9.53;;;8.73;;
5297;SDS011;14738;42.668;23.250;2023-05-10T01:51:17;9.10;;;8.40;;
5297;SDS011;14738;42.668;23.250;2023-05-10T01:53:47;7.97;;;7.27;;
5297;SDS011;14738;42.668;23.250;2023-05-10T01:56:14;8.00;;;7.40;;
5297;SDS011;14738;42.668;23.250;2023-05-10T01:58:41;9.20;;;8.00;;
5297;SDS011;14738;42.668;23.250;2023-05-10T02:01:10;8.00;;;7.30;;
5297;SDS011;14738;42.668;23.250;2023-05-10T02:03:37;8.00;;;7.40;;
5297;SDS011;14738;42.668;23.250;2023-05-10T02:06:05;7.80;;;7.03;;
5297;SDS011;14738;42.668;23.250;2023-05-10T02:08:32;9.00;;;7.40;;
5297;SDS011;14738;42.668;23.250;2023-05-10T02:11:01;7.60;;;7.00;;
5297;SDS011;14738;42.668;23.250;2023-05-10T02:13:28;8.43;;;7.63;;
5297;SDS011;14738;42.668;23.250;2023-05-10T02:15:56;6.90;;;6.30;;
5297;SDS011;14738;42.668;23.250;2023-05-10T02:18:23;7.10;;;6.60;;
5297;SDS011;14738;42.668;23.250;2023-05-10T02:20:51;7.00;;;6.50;;
5297;SDS011;14738;42.668;23.250;2023-05-10T02:23:18;6.20;;;5.80;;
5297;SDS011;14738;42.668;23.250;2023-05-10T02:25:45;6.70;;;5.67;;
5297;SDS011;14738;42.668;23.250;2023-05-10T02:28:13;6.73;;;6.23;;
5297;SDS011;14738;42.668;23.250;2023-05-10T02:30:40;7.77;;;7.07;;
5297;SDS011;14738;42.668;23.250;2023-05-10T02:33:07;6.37;;;5.87;;
5297;SDS011;14738;42.668;23.250;2023-05-10T02:35:33;6.00;;;5.50;;
5297;SDS011;14738;42.668;23.250;2023-05-10T02:37:59;6.83;;;6.27;;
5297;SDS011;14738;42.668;23.250;2023-05-10T02:40:26;6.93;;;6.20;;
5297;SDS011;14738;42.668;23.250;2023-05-10T02:42:54;7.07;;;6.37;;
5297;SDS011;14738;42.668;23.250;2023-05-10T02:45:22;7.43;;;6.83;;
5297;SDS011;14738;42.668;23.250;2023-05-10T02:47:51;6.87;;;6.20;;
5297;SDS011;14738;42.668;23.250;2023-05-10T02:50:17;7.07;;;6.47;;
5297;SDS011;14738;42.668;23.250;2023-05-10T02:52:47;6.80;;;6.20;;
5297;SDS011;14738;42.668;23.250;2023-05-10T02:55:16;5.80;;;5.30;;
5297;SDS011;14738;42.668;23.250;2023-05-10T02:57:48;7.67;;;6.30;;
5297;SDS011;14738;42.668;23.250;2023-05-10T03:00:17;7.00;;;6.40;;
5297;SDS011;14738;42.668;23.250;2023-05-10T03:02:42;7.13;;;6.43;;
5297;SDS011;14738;42.668;23.250;2023-05-10T03:05:08;6.90;;;6.30;;
5297;SDS011;14738;42.668;23.250;2023-05-10T03:07:33;6.60;;;6.10;;
5297;SDS011;14738;42.668;23.250;2023-05-10T03:09:59;7.80;;;7.10;;
5297;SDS011;14738;42.668;23.250;2023-05-10T03:18:04;7.30;;;6.60;;
5297;SDS011;14738;42.668;23.250;2023-05-10T03:20:52;6.73;;;6.20;;
5297;SDS011;14738;42.668;23.250;2023-05-10T03:24:08;7.03;;;6.43;;
5297;SDS011;14738;42.668;23.250;2023-05-10T03:26:20;7.53;;;6.77;;
5297;SDS011;14738;42.668;23.250;2023-05-10T03:28:50;7.60;;;6.87;;
5297;SDS011;14738;42.668;23.250;2023-05-10T03:31:17;7.07;;;6.40;;
5297;SDS011;14738;42.668;23.250;2023-05-10T03:33:46;7.90;;;7.00;;
5297;SDS011;14738;42.668;23.250;2023-05-10T03:36:15;7.23;;;6.63;;
5297;SDS011;14738;42.668;23.250;2023-05-10T03:38:41;7.13;;;6.60;;
5297;SDS011;14738;42.668;23.250;2023-05-10T03:41:06;7.17;;;6.57;;
5297;SDS011;14738;42.668;23.250;2023-05-10T03:43:32;6.50;;;5.90;;
5297;SDS011;14738;42.668;23.250;2023-05-10T03:45:57;6.57;;;5.90;;
5297;SDS011;14738;42.668;23.250;2023-05-10T03:48:23;6.60;;;6.10;;
5297;SDS011;14738;42.668;23.250;2023-05-10T03:50:48;7.90;;;7.20;;
5297;SDS011;14738;42.668;23.250;2023-05-10T03:53:14;7.10;;;6.40;;
5297;SDS011;14738;42.668;23.250;2023-05-10T03:55:40;8.10;;;6.40;;
5297;SDS011;14738;42.668;23.250;2023-05-10T03:58:05;7.07;;;6.13;;
5297;SDS011;14738;42.668;23.250;2023-05-10T04:00:31;7.20;;;6.50;;
5297;SDS011;14738;42.668;23.250;2023-05-10T04:02:57;7.37;;;6.60;;
5297;SDS011;14738;42.668;23.250;2023-05-10T04:05:22;6.97;;;6.47;;
5297;SDS011;14738;42.668;23.250;2023-05-10T04:07:48;8.07;;;6.33;;
5297;SDS011;14738;42.668;23.250;2023-05-10T04:10:14;6.80;;;6.10;;
5297;SDS011;14738;42.668;23.250;2023-05-10T04:12:41;6.30;;;5.80;;
5297;SDS011;14738;42.668;23.250;2023-05-10T04:15:06;6.83;;;6.10;;
5297;SDS011;14738;42.668;23.250;2023-05-10T04:17:32;6.00;;;5.50;;
5297;SDS011;14738;42.668;23.250;2023-05-10T04:19:58;6.33;;;5.83;;
5297;SDS011;14738;42.668;23.250;2023-05-10T04:22:23;7.03;;;6.37;;
5297;SDS011;14738;42.668;23.250;2023-05-10T04:24:49;5.60;;;5.10;;
5297;SDS011;14738;42.668;23.250;2023-05-10T04:27:14;6.23;;;5.77;;
5297;SDS011;14738;42.668;23.250;2023-05-10T04:29:39;7.00;;;6.00;;
5297;SDS011;14738;42.668;23.250;2023-05-10T04:32:05;5.80;;;5.30;;
5297;SDS011;14738;42.668;23.250;2023-05-10T04:34:30;7.57;;;6.50;;
5297;SDS011;14738;42.668;23.250;2023-05-10T04:36:56;7.23;;;6.63;;
5297;SDS011;14738;42.668;23.250;2023-05-10T04:39:24;9.03;;;6.83;;
5297;SDS011;14738;42.668;23.250;2023-05-10T04:41:49;8.33;;;6.50;;
5297;SDS011;14738;42.668;23.250;2023-05-10T04:44:14;7.27;;;6.60;;
5297;SDS011;14738;42.668;23.250;2023-05-10T04:46:40;7.00;;;6.40;;
5297;SDS011;14738;42.668;23.250;2023-05-10T04:49:05;6.50;;;6.00;;
5297;SDS011;14738;42.668;23.250;2023-05-10T04:51:31;8.00;;;6.50;;
5297;SDS011;14738;42.668;23.250;2023-05-10T04:53:57;7.63;;;6.90;;
5297;SDS011;14738;42.668;23.250;2023-05-10T04:56:22;6.87;;;6.30;;
5297;SDS011;14738;42.668;23.250;2023-05-10T04:58:47;7.37;;;6.77;;
5297;SDS011;14738;42.668;23.250;2023-05-10T05:01:13;6.13;;;5.63;;
5297;SDS011;14738;42.668;23.250;2023-05-10T05:03:38;6.97;;;6.40;;
5297;SDS011;14738;42.668;23.250;2023-05-10T05:06:04;6.93;;;6.43;;
5297;SDS011;14738;42.668;23.250;2023-05-10T05:08:30;7.20;;;6.60;;
5297;SDS011;14738;42.668;23.250;2023-05-10T05:10:55;8.00;;;6.97;;
5297;SDS011;14738;42.668;23.250;2023-05-10T05:13:21;7.27;;;6.57;;
5297;SDS011;14738;42.668;23.250;2023-05-10T05:15:46;6.10;;;5.60;;
5297;SDS011;14738;42.668;23.250;2023-05-10T05:18:13;7.10;;;6.50;;
5297;SDS011;14738;42.668;23.250;2023-05-10T05:20:38;5.00;;;4.60;;
5297;SDS011;14738;42.668;23.250;2023-05-10T05:23:04;6.83;;;6.23;;
5297;SDS011;14738;42.668;23.250;2023-05-10T05:25:29;7.33;;;6.60;;
5297;SDS011;14738;42.668;23.250;2023-05-10T05:27:54;6.60;;;6.00;;
5297;SDS011;14738;42.668;23.250;2023-05-10T05:30:20;8.00;;;7.23;;
5297;SDS011;14738;42.668;23.250;2023-05-10T05:32:45;7.90;;;7.30;;
5297;SDS011;14738;42.668;23.250;2023-05-10T05:35:12;8.63;;;7.93;;
5297;SDS011;14738;42.668;23.250;2023-05-10T05:37:37;9.00;;;7.83;;
5297;SDS011;14738;42.668;23.250;2023-05-10T05:40:03;8.67;;;7.87;;
5297;SDS011;14738;42.668;23.250;2023-05-10T05:42:29;9.13;;;8.33;;
5297;SDS011;14738;42.668;23.250;2023-05-10T05:44:56;9.17;;;8.27;;
5297;SDS011;14738;42.668;23.250;2023-05-10T05:47:21;8.53;;;7.77;;
5297;SDS011;14738;42.668;23.250;2023-05-10T05:49:46;8.57;;;7.87;;
5297;SDS011;14738;42.668;23.250;2023-05-10T05:52:12;6.33;;;5.73;;
5297;SDS011;14738;42.668;23.250;2023-05-10T05:54:37;8.53;;;7.73;;
5297;SDS011;14738;42.668;23.250;2023-05-10T05:57:03;8.97;;;7.60;;
5297;SDS011;14738;42.668;23.250;2023-05-10T05:59:28;9.53;;;8.53;;
5297;SDS011;14738;42.668;23.250;2023-05-10T06:01:54;9.23;;;8.40;;
5297;SDS011;14738;42.668;23.250;2023-05-10T06:04:19;11.00;;;9.80;;
5297;SDS011;14738;42.668;23.250;2023-05-10T06:06:44;11.30;;;9.70;;
5297;SDS011;14738;42.668;23.250;2023-05-10T06:09:10;10.93;;;9.70;;
5297;SDS011;14738;42.668;23.250;2023-05-10T06:11:36;10.17;;;8.67;;
5297;SDS011;14738;42.668;23.250;2023-05-10T06:14:02;10.07;;;9.10;;
5297;SDS011;14738;42.668;23.250;2023-05-10T06:16:29;8.40;;;7.60;;
5297;SDS011;14738;42.668;23.250;2023-05-10T06:18:55;11.43;;;10.10;;
5297;SDS011;14738;42.668;23.250;2023-05-10T06:21:20;9.17;;;8.30;;
5297;SDS011;14738;42.668;23.250;2023-05-10T06:23:46;13.00;;;10.00;;
5297;SDS011;14738;42.668;23.250;2023-05-10T06:26:11;10.93;;;9.87;;
5297;SDS011;14738;42.668;23.250;2023-05-10T06:28:36;11.03;;;9.83;;
5297;SDS011;14738;42.668;23.250;2023-05-10T06:31:05;13.20;;;10.60;;
5297;SDS011;14738;42.668;23.250;2023-05-10T06:33:31;8.57;;;7.70;;
5297;SDS011;14738;42.668;23.250;2023-05-10T06:35:57;11.57;;;10.47;;
5297;SDS011;14738;42.668;23.250;2023-05-10T06:38:22;8.53;;;7.73;;
5297;SDS011;14738;42.668;23.250;2023-05-10T06:40:48;11.53;;;10.33;;
5297;SDS011;14738;42.668;23.250;2023-05-10T06:43:13;11.53;;;10.03;;
5297;SDS011;14738;42.668;23.250;2023-05-10T06:45:39;10.50;;;9.07;;
5297;SDS011;14738;42.668;23.250;2023-05-10T06:48:04;11.13;;;9.87;;
5297;SDS011;14738;42.668;23.250;2023-05-10T06:50:30;13.90;;;10.60;;
5297;SDS011;14738;42.668;23.250;2023-05-10T06:52:55;11.37;;;10.20;;
5297;SDS011;14738;42.668;23.250;2023-05-10T06:55:21;12.80;;;9.10;;
5297;SDS011;14738;42.668;23.250;2023-05-10T06:57:46;10.87;;;9.70;;
5297;SDS011;14738;42.668;23.250;2023-05-10T07:00:12;8.90;;;8.00;;
5297;SDS011;14738;42.668;23.250;2023-05-10T07:02:38;8.97;;;8.07;;
5297;SDS011;14738;42.668;23.250;2023-05-10T07:05:04;8.50;;;7.10;;
5297;SDS011;14738;42.668;23.250;2023-05-10T07:07:29;11.80;;;10.37;;
5297;SDS011;14738;42.668;23.250;2023-05-10T07:09:55;8.60;;;7.70;;
5297;SDS011;14738;42.668;23.250;2023-05-10T07:12:22;10.10;;;9.10;;
5297;SDS011;14738;42.668;23.250;2023-05-10T07:14:47;10.87;;;9.00;;
5297;SDS011;14738;42.668;23.250;2023-05-10T07:17:13;10.87;;;9.73;;
5297;SDS011;14738;42.668;23.250;2023-05-10T07:19:38;9.80;;;8.80;;
5297;SDS011;14738;42.668;23.250;2023-05-10T07:22:04;10.73;;;9.63;;
5297;SDS011;14738;42.668;23.250;2023-05-10T07:24:29;10.73;;;9.57;;
5297;SDS011;14738;42.668;23.250;2023-05-10T07:26:56;14.40;;;10.07;;
5297;SDS011;14738;42.668;23.250;2023-05-10T07:29:21;11.63;;;9.37;;
5297;SDS011;14738;42.668;23.250;2023-05-10T07:31:47;11.03;;;10.00;;
5297;SDS011;14738;42.668;23.250;2023-05-10T07:34:12;8.80;;;7.90;;
5297;SDS011;14738;42.668;23.250;2023-05-10T07:36:37;12.27;;;9.80;;
5297;SDS011;14738;42.668;23.250;2023-05-10T07:39:03;13.40;;;12.10;;
5297;SDS011;14738;42.668;23.250;2023-05-10T07:41:28;12.80;;;11.50;;
5297;SDS011;14738;42.668;23.250;2023-05-10T07:43:54;10.93;;;8.70;;
5297;SDS011;14738;42.668;23.250;2023-05-10T07:46:19;8.60;;;7.80;;
5297;SDS011;14738;42.668;23.250;2023-05-10T07:48:45;14.70;;;12.33;;
5297;SDS011;14738;42.668;23.250;2023-05-10T07:51:10;13.50;;;8.97;;
5297;SDS011;14738;42.668;23.250;2023-05-10T07:53:36;11.83;;;10.63;;
5297;SDS011;14738;42.668;23.250;2023-05-10T07:56:19;11.67;;;9.80;;
5297;SDS011;14738;42.668;23.250;2023-05-10T07:58:54;14.97;;;11.17;;
5297;SDS011;14738;42.668;23.250;2023-05-10T08:01:20;13.43;;;8.87;;
5297;SDS011;14738;42.668;23.250;2023-05-10T08:03:46;11.73;;;9.53;;
5297;SDS011;14738;42.668;23.250;2023-05-10T08:06:11;11.03;;;10.03;;
5297;SDS011;14738;42.668;23.250;2023-05-10T08:08:37;9.70;;;7.77;;
5297;SDS011;14738;42.668;23.250;2023-05-10T08:11:03;12.90;;;11.07;;
5297;SDS011;14738;42.668;23.250;2023-05-10T08:13:29;15.17;;;12.17;;
5297;SDS011;14738;42.668;23.250;2023-05-10T08:15:54;14.47;;;13.07;;
5297;SDS011;14738;42.668;23.250;2023-05-10T08:18:20;14.80;;;13.30;;
5297;SDS011;14738;42.668;23.250;2023-05-10T08:20:45;19.53;;;15.80;;
5297;SDS011;14738;42.668;23.250;2023-05-10T08:23:14;17.33;;;13.60;;
5297;SDS011;14738;42.668;23.250;2023-05-10T08:25:39;10.27;;;9.23;;
5297;SDS011;14738;42.668;23.250;2023-05-10T08:28:04;16.97;;;9.67;;
5297;SDS011;14738;42.668;23.250;2023-05-10T08:30:30;15.13;;;11.10;;
5297;SDS011;14738;42.668;23.250;2023-05-10T08:32:55;14.00;;;11.80;;
5297;SDS011;14738;42.668;23.250;2023-05-10T08:35:21;11.87;;;10.70;;
5297;SDS011;14738;42.668;23.250;2023-05-10T08:37:46;10.57;;;9.50;;
5297;SDS011;14738;42.668;23.250;2023-05-10T08:40:11;14.60;;;11.83;;
5297;SDS011;14738;42.668;23.250;2023-05-10T08:42:39;11.87;;;10.67;;
5297;SDS011;14738;42.668;23.250;2023-05-10T08:45:08;13.87;;;11.20;;
5297;SDS011;14738;42.668;23.250;2023-05-10T08:47:35;13.50;;;9.70;;
5297;SDS011;14738;42.668;23.250;2023-05-10T08:50:01;9.73;;;8.70;;
5297;SDS011;14738;42.668;23.250;2023-05-10T08:52:27;11.00;;;9.43;;
5297;SDS011;14738;42.668;23.250;2023-05-10T08:54:55;10.93;;;9.83;;
5297;SDS011;14738;42.668;23.250;2023-05-10T08:57:20;10.10;;;9.13;;
5297;SDS011;14738;42.668;23.250;2023-05-10T08:59:46;13.30;;;11.27;;
5297;SDS011;14738;42.668;23.250;2023-05-10T09:02:11;13.20;;;11.60;;
5297;SDS011;14738;42.668;23.250;2023-05-10T09:04:38;10.70;;;9.80;;
5297;SDS011;14738;42.668;23.250;2023-05-10T09:07:04;10.97;;;9.07;;
5297;SDS011;14738;42.668;23.250;2023-05-10T09:09:29;10.83;;;9.73;;
5297;SDS011;14738;42.668;23.250;2023-05-10T09:11:56;13.33;;;11.07;;
5297;SDS011;14738;42.668;23.250;2023-05-10T09:14:23;10.40;;;9.33;;
5297;SDS011;14738;42.668;23.250;2023-05-10T09:16:50;8.30;;;7.60;;
5297;SDS011;14738;42.668;23.250;2023-05-10T09:19:15;12.20;;;11.10;;
5297;SDS011;14738;42.668;23.250;2023-05-10T09:21:41;14.50;;;10.80;;
5297;SDS011;14738;42.668;23.250;2023-05-10T09:24:06;10.10;;;9.10;;
5297;SDS011;14738;42.668;23.250;2023-05-10T09:26:33;11.83;;;10.63;;
5297;SDS011;14738;42.668;23.250;2023-05-10T09:29:00;12.20;;;11.10;;
5297;SDS011;14738;42.668;23.250;2023-05-10T09:34:29;9.90;;;9.00;;
5297;SDS011;14738;42.668;23.250;2023-05-10T09:36:57;11.03;;;10.03;;
5297;SDS011;14738;42.668;23.250;2023-05-10T09:39:35;12.10;;;10.90;;
5297;SDS011;14738;42.668;23.250;2023-05-10T09:42:05;11.23;;;10.20;;
5297;SDS011;14738;42.668;23.250;2023-05-10T09:44:32;15.77;;;11.17;;
5297;SDS011;14738;42.668;23.250;2023-05-10T09:46:58;11.67;;;10.47;;
5297;SDS011;14738;42.668;23.250;2023-05-10T09:49:25;11.33;;;10.00;;
5297;SDS011;14738;42.668;23.250;2023-05-10T09:52:03;11.30;;;10.23;;
5297;SDS011;14738;42.668;23.250;2023-05-10T09:54:30;9.57;;;8.73;;
5297;SDS011;14738;42.668;23.250;2023-05-10T09:56:56;9.50;;;8.70;;
5297;SDS011;14738;42.668;23.250;2023-05-10T09:59:21;11.93;;;10.83;;
5297;SDS011;14738;42.668;23.250;2023-05-10T10:01:51;12.10;;;10.70;;
5297;SDS011;14738;42.668;23.250;2023-05-10T10:04:18;22.40;;;10.93;;
5297;SDS011;14738;42.668;23.250;2023-05-10T10:06:45;10.30;;;9.23;;
5297;SDS011;14738;42.668;23.250;2023-05-10T10:09:11;11.80;;;10.60;;
5297;SDS011;14738;42.668;23.250;2023-05-10T10:11:37;9.47;;;8.63;;
5297;SDS011;14738;42.668;23.250;2023-05-10T10:14:03;11.33;;;10.27;;
5297;SDS011;14738;42.668;23.250;2023-05-10T10:16:29;12.93;;;11.67;;
5297;SDS011;14738;42.668;23.250;2023-05-10T10:18:56;11.50;;;10.33;;
5297;SDS011;14738;42.668;23.250;2023-05-10T10:21:21;10.63;;;9.70;;
5297;SDS011;14738;42.668;23.250;2023-05-10T10:23:47;10.00;;;9.20;;
5297;SDS011;14738;42.668;23.250;2023-05-10T10:26:13;10.30;;;8.70;;
5297;SDS011;14738;42.668;23.250;2023-05-10T10:28:48;11.10;;;10.10;;
5297;SDS011;14738;42.668;23.250;2023-05-10T10:31:32;11.87;;;10.50;;
5297;SDS011;14738;42.668;23.250;2023-05-10T10:34:08;9.80;;;8.90;;
5297;SDS011;14738;42.668;23.250;2023-05-10T10:36:42;15.53;;;10.00;;
5297;SDS011;14738;42.668;23.250;2023-05-10T10:39:10;12.13;;;11.03;;
5297;SDS011;14738;42.668;23.250;2023-05-10T10:41:36;11.40;;;9.17;;
5297;SDS011;14738;42.668;23.250;2023-05-10T10:52:27;12.47;;;10.80;;
5297;SDS011;14738;42.668;23.250;2023-05-10T10:55:11;13.17;;;9.40;;
5297;SDS011;14738;42.668;23.250;2023-05-10T11:02:45;10.23;;;9.40;;
5297;SDS011;14738;42.668;23.250;2023-05-10T11:08:01;9.93;;;8.93;;
5297;SDS011;14738;42.668;23.250;2023-05-10T11:10:51;8.60;;;7.90;;
5297;SDS011;14738;42.668;23.250;2023-05-10T11:13:26;9.90;;;8.93;;
5297;SDS011;14738;42.668;23.250;2023-05-10T11:15:59;9.90;;;8.90;;
5297;SDS011;14738;42.668;23.250;2023-05-10T11:18:36;8.97;;;8.17;;
5297;SDS011;14738;42.668;23.250;2023-05-10T11:21:01;8.83;;;8.13;;
5297;SDS011;14738;42.668;23.250;2023-05-10T11:23:33;9.00;;;8.30;;
5297;SDS011;14738;42.668;23.250;2023-05-10T11:26:14;9.00;;;8.27;;
5297;SDS011;14738;42.668;23.250;2023-05-10T11:28:46;9.07;;;8.27;;
5297;SDS011;14738;42.668;23.250;2023-05-10T11:31:15;10.83;;;9.83;;
5297;SDS011;14738;42.668;23.250;2023-05-10T11:33:43;9.73;;;8.80;;
5297;SDS011;14738;42.668;23.250;2023-05-10T11:36:14;9.87;;;8.87;;
5297;SDS011;14738;42.668;23.250;2023-05-10T11:38:40;12.43;;;9.87;;
5297;SDS011;14738;42.668;23.250;2023-05-10T11:41:07;11.10;;;10.10;;
5297;SDS011;14738;42.668;23.250;2023-05-10T11:43:35;12.97;;;9.20;;
5297;SDS011;14738;42.668;23.250;2023-05-10T11:46:01;10.80;;;9.80;;
5297;SDS011;14738;42.668;23.250;2023-05-10T11:48:29;11.00;;;10.10;;
5297;SDS011;14738;42.668;23.250;2023-05-10T11:50:55;11.00;;;10.00;;
5297;SDS011;14738;42.668;23.250;2023-05-10T11:53:22;10.33;;;9.03;;
5297;SDS011;14738;42.668;23.250;2023-05-10T11:55:47;11.10;;;9.20;;
5297;SDS011;14738;42.668;23.250;2023-05-10T11:58:13;12.70;;;11.33;;
5297;SDS011;14738;42.668;23.250;2023-05-10T12:00:38;11.07;;;10.03;;
5297;SDS011;14738;42.668;23.250;2023-05-10T12:03:04;11.33;;;9.47;;
5297;SDS011;14738;42.668;23.250;2023-05-10T12:05:31;11.10;;;10.10;;
5297;SDS011;14738;42.668;23.250;2023-05-10T12:08:11;11.03;;;9.93;;
5297;SDS011;14738;42.668;23.250;2023-05-10T12:10:37;10.00;;;9.00;;
5297;SDS011;14738;42.668;23.250;2023-05-10T12:13:03;11.23;;;9.40;;
5297;SDS011;14738;42.668;23.250;2023-05-10T12:15:28;11.13;;;9.93;;
5297;SDS011;14738;42.668;23.250;2023-05-10T12:17:53;11.70;;;10.50;;
5297;SDS011;14738;42.668;23.250;2023-05-10T12:20:20;11.17;;;10.20;;
5297;SDS011;14738;42.668;23.250;2023-05-10T12:22:49;10.67;;;9.67;;
5297;SDS011;14738;42.668;23.250;2023-05-10T12:25:17;12.10;;;11.00;;
5297;SDS011;14738;42.668;23.250;2023-05-10T12:27:52;12.57;;;10.70;;
5297;SDS011;14738;42.668;23.250;2023-05-10T12:30:23;11.23;;;10.20;;
5297;SDS011;14738;42.668;23.250;2023-05-10T12:32:49;9.80;;;9.00;;
5297;SDS011;14738;42.668;23.250;2023-05-10T12:35:15;11.70;;;10.00;;
5297;SDS011;14738;42.668;23.250;2023-05-10T12:37:44;11.23;;;9.57;;
5297;SDS011;14738;42.668;23.250;2023-05-10T12:40:10;10.63;;;9.63;;
5297;SDS011;14738;42.668;23.250;2023-05-10T12:42:36;10.00;;;8.70;;
5297;SDS011;14738;42.668;23.250;2023-05-10T12:45:03;13.73;;;9.40;;
5297;SDS011;14738;42.668;23.250;2023-05-10T12:47:30;10.67;;;9.70;;
5297;SDS011;14738;42.668;23.250;2023-05-10T12:49:56;11.43;;;10.33;;
5297;SDS011;14738;42.668;23.250;2023-05-10T12:52:22;12.60;;;10.60;;
5297;SDS011;14738;42.668;23.250;2023-05-10T12:54:47;9.90;;;8.90;;
5297;SDS011;14738;42.668;23.250;2023-05-10T12:57:13;10.60;;;9.60;;
5297;SDS011;14738;42.668;23.250;2023-05-10T12:59:38;11.70;;;10.50;;
5297;SDS011;14738;42.668;23.250;2023-05-10T13:02:04;9.40;;;8.40;;
5297;SDS011;14738;42.668;23.250;2023-05-10T13:04:30;14.43;;;11.03;;
5297;SDS011;14738;42.668;23.250;2023-05-10T13:06:55;11.13;;;10.13;;
5297;SDS011;14738;42.668;23.250;2023-05-10T13:09:23;13.13;;;11.73;;
5297;SDS011;14738;42.668;23.250;2023-05-10T13:11:54;12.47;;;11.13;;
5297;SDS011;14738;42.668;23.250;2023-05-10T13:14:19;13.20;;;11.80;;
5297;SDS011;14738;42.668;23.250;2023-05-10T13:16:45;12.47;;;11.23;;
5297;SDS011;14738;42.668;23.250;2023-05-10T13:19:12;11.33;;;10.23;;
5297;SDS011;14738;42.668;23.250;2023-05-10T13:21:37;9.80;;;8.87;;
5297;SDS011;14738;42.668;23.250;2023-05-10T13:24:03;11.53;;;10.43;;
5297;SDS011;14738;42.668;23.250;2023-05-10T13:26:28;10.47;;;9.47;;
5297;SDS011;14738;42.668;23.250;2023-05-10T13:28:54;12.67;;;9.57;;
5297;SDS011;14738;42.668;23.250;2023-05-10T13:31:20;12.17;;;11.00;;
5297;SDS011;14738;42.668;23.250;2023-05-10T13:33:46;11.50;;;9.43;;
5297;SDS011;14738;42.668;23.250;2023-05-10T13:36:11;15.67;;;11.20;;
5297;SDS011;14738;42.668;23.250;2023-05-10T13:38:37;11.17;;;9.27;;
5297;SDS011;14738;42.668;23.250;2023-05-10T13:41:02;9.97;;;9.07;;
5297;SDS011;14738;42.668;23.250;2023-05-10T13:43:28;10.30;;;9.30;;
5297;SDS011;14738;42.668;23.250;2023-05-10T13:45:54;10.23;;;9.23;;
5297;SDS011;14738;42.668;23.250;2023-05-10T13:48:19;10.70;;;9.73;;
5297;SDS011;14738;42.668;23.250;2023-05-10T13:50:45;12.03;;;10.33;;
5297;SDS011;14738;42.668;23.250;2023-05-10T13:53:11;17.20;;;10.43;;
5297;SDS011;14738;42.668;23.250;2023-05-10T13:55:36;10.30;;;9.27;;
5297;SDS011;14738;42.668;23.250;2023-05-10T13:58:02;13.00;;;10.60;;
5297;SDS011;14738;42.668;23.250;2023-05-10T14:00:27;12.10;;;10.90;;
5297;SDS011;14738;42.668;23.250;2023-05-10T14:02:53;12.93;;;10.37;;
5297;SDS011;14738;42.668;23.250;2023-05-10T14:05:18;10.63;;;9.63;;
5297;SDS011;14738;42.668;23.250;2023-05-10T14:07:44;11.10;;;9.17;;
5297;SDS011;14738;42.668;23.250;2023-05-10T14:10:09;9.80;;;8.90;;
5297;SDS011;14738;42.668;23.250;2023-05-10T14:12:35;11.33;;;10.03;;
5297;SDS011;14738;42.668;23.250;2023-05-10T14:15:01;11.10;;;10.10;;
5297;SDS011;14738;42.668;23.250;2023-05-10T14:17:27;10.10;;;9.03;;
5297;SDS011;14738;42.668;23.250;2023-05-10T14:19:52;10.70;;;9.70;;
5297;SDS011;14738;42.668;23.250;2023-05-10T14:22:18;11.77;;;10.60;;
5297;SDS011;14738;42.668;23.250;2023-05-10T14:24:43;11.53;;;9.63;;
5297;SDS011;14738;42.668;23.250;2023-05-10T14:27:11;10.90;;;9.90;;
5297;SDS011;14738;42.668;23.250;2023-05-10T14:29:37;9.23;;;8.43;;
5297;SDS011;14738;42.668;23.250;2023-05-10T14:32:03;9.67;;;8.50;;
5297;SDS011;14738;42.668;23.250;2023-05-10T14:34:28;10.33;;;9.33;;
5297;SDS011;14738;42.668;23.250;2023-05-10T14:36:53;10.87;;;9.87;;
5297;SDS011;14738;42.668;23.250;2023-05-10T14:39:20;11.43;;;10.40;;
5297;SDS011;14738;42.668;23.250;2023-05-10T14:41:45;13.83;;;9.87;;
5297;SDS011;14738;42.668;23.250;2023-05-10T14:44:12;11.23;;;9.30;;
5297;SDS011;14738;42.668;23.250;2023-05-10T14:46:38;10.93;;;9.80;;
5297;SDS011;14738;42.668;23.250;2023-05-10T14:49:04;10.30;;;9.40;;
5297;SDS011;14738;42.668;23.250;2023-05-10T14:51:29;9.70;;;8.80;;
5297;SDS011;14738;42.668;23.250;2023-05-10T14:53:55;10.60;;;9.50;;
5297;SDS011;14738;42.668;23.250;2023-05-10T14:56:21;13.90;;;11.07;;
5297;SDS011;14738;42.668;23.250;2023-05-10T14:58:47;9.60;;;8.70;;
5297;SDS011;14738;42.668;23.250;2023-05-10T15:01:12;11.73;;;10.20;;
5297;SDS011;14738;42.668;23.250;2023-05-10T15:03:37;12.73;;;10.30;;
5297;SDS011;14738;42.668;23.250;2023-05-10T15:06:03;15.63;;;11.00;;
5297;SDS011;14738;42.668;23.250;2023-05-10T15:08:29;10.40;;;9.50;;
5297;SDS011;14738;42.668;23.250;2023-05-10T15:10:54;10.67;;;9.77;;